createdAt,value
2022-10-24T00:02:14.547Z,25.63
2022-10-24T00:04:45.841Z,22.70
2022-10-24T00:07:16.422Z,21.13
2022-10-24T00:09:47.570Z,20.87
2022-10-24T00:14:51.073Z,22.97
2022-10-24T00:17:19.832Z,22.60
2022-10-24T00:19:48.719Z,18.63
2022-10-24T00:22:23.392Z,20.30
2022-10-24T00:24:54.880Z,19.23
2022-10-24T00:27:30.243Z,28.77
2022-10-24T00:29:59.506Z,25.00
2022-10-24T00:32:29.904Z,20.00
2022-10-24T00:35:03.305Z,22.33
2022-10-24T00:37:33.662Z,19.63
2022-10-24T00:40:05.497Z,17.17
2022-10-24T00:42:38.321Z,22.70
2022-10-24T00:45:50.197Z,25.30
2022-10-24T00:48:27.199Z,23.23
2022-10-24T00:51:03.576Z,19.63
2022-10-24T00:53:36.577Z,23.30
2022-10-24T00:56:09.685Z,22.53
2022-10-24T00:58:45.364Z,21.57
2022-10-24T01:01:14.459Z,16.90
2022-10-24T01:03:43.313Z,19.20
2022-10-24T01:06:33.810Z,17.70
2022-10-24T01:09:19.020Z,21.70
2022-10-24T01:12:01.819Z,23.30
2022-10-24T01:14:52.088Z,18.57
2022-10-24T01:17:29.249Z,22.53
2022-10-24T01:20:47.047Z,20.13
2022-10-24T01:24:06.798Z,18.47
2022-10-24T01:26:58.430Z,22.57
2022-10-24T01:30:02.474Z,20.93
2022-10-24T01:32:51.835Z,16.80
2022-10-24T01:35:37.839Z,17.47
2022-10-24T01:38:14.405Z,20.33
2022-10-24T01:40:51.208Z,19.23
2022-10-24T01:43:24.710Z,21.13
2022-10-24T01:46:02.787Z,18.63
2022-10-24T01:48:41.049Z,17.90
2022-10-24T01:51:14.650Z,20.00
2022-10-24T01:53:46.193Z,14.90
2022-10-24T01:56:14.889Z,14.43
2022-10-24T01:58:52.723Z,14.83
2022-10-24T02:01:27.156Z,20.00
2022-10-24T02:04:10.647Z,18.83
2022-10-24T02:06:43.812Z,17.37
2022-10-24T02:09:22.093Z,16.90
2022-10-24T02:12:09.253Z,15.20
2022-10-24T02:14:44.566Z,19.90
2022-10-24T02:17:13.993Z,16.83
2022-10-24T02:19:51.369Z,16.63
2022-10-24T02:22:35.149Z,14.80
2022-10-24T02:25:11.900Z,11.80
2022-10-24T02:27:44.708Z,13.80
2022-10-24T02:30:17.055Z,12.87
2022-10-24T02:32:52.728Z,14.77
2022-10-24T02:35:28.773Z,13.77
2022-10-24T02:38:05.855Z,13.17
2022-10-24T02:40:36.845Z,14.33
2022-10-24T02:43:08.131Z,17.60
2022-10-24T02:45:44.036Z,15.00
2022-10-24T02:48:15.904Z,11.60
2022-10-24T02:53:23.926Z,20.10
2022-10-24T02:55:54.236Z,12.67
2022-10-24T02:58:27.519Z,15.10
2022-10-24T03:01:03.572Z,13.33
2022-10-24T03:03:34.956Z,16.03
2022-10-24T03:06:07.095Z,10.57
2022-10-24T03:08:41.974Z,11.07
2022-10-24T03:11:11.078Z,11.60
2022-10-24T03:13:40.681Z,13.00
2022-10-24T03:16:11.814Z,10.27
2022-10-24T03:18:44.052Z,17.07
2022-10-24T03:21:15.690Z,14.33
2022-10-24T03:23:47.324Z,12.50
2022-10-24T03:26:16.514Z,12.03
2022-10-24T03:28:49.045Z,10.47
2022-10-24T03:31:21.178Z,17.50
2022-10-24T03:33:54.809Z,14.97
2022-10-24T03:36:29.399Z,14.47
2022-10-24T03:38:58.972Z,12.73
2022-10-24T03:41:29.538Z,10.47
2022-10-24T03:44:00.324Z,15.10
2022-10-24T03:46:29.977Z,11.77
2022-10-24T03:49:04.788Z,17.17
2022-10-24T03:51:43.785Z,18.20
2022-10-24T03:54:17.064Z,12.80
2022-10-24T03:56:50.192Z,13.80
2022-10-24T03:59:18.921Z,12.50
2022-10-24T04:01:47.507Z,12.43
2022-10-24T04:04:17.778Z,17.03
2022-10-24T04:06:49.524Z,15.57
2022-10-24T04:09:18.507Z,13.53
2022-10-24T04:11:47.001Z,11.90
2022-10-24T04:14:15.630Z,13.90
2022-10-24T04:16:44.211Z,15.83
2022-10-24T04:19:13.342Z,14.03
2022-10-24T04:21:41.614Z,14.77
2022-10-24T04:24:11.829Z,17.03
2022-10-24T04:26:44.291Z,17.87
2022-10-24T04:29:15.595Z,21.17
2022-10-24T04:31:45.511Z,17.27
2022-10-24T04:34:14.048Z,17.50
2022-10-24T04:36:42.878Z,11.33
2022-10-24T04:39:13.005Z,11.97
2022-10-24T04:41:41.715Z,12.03
2022-10-24T04:44:10.417Z,17.90
2022-10-24T04:46:39.349Z,10.70
2022-10-24T04:49:08.232Z,16.03
2022-10-24T04:51:38.022Z,10.57
2022-10-24T04:54:08.015Z,14.00
2022-10-24T04:56:38.241Z,13.17
2022-10-24T04:59:06.946Z,12.60
2022-10-24T05:01:35.833Z,11.27
2022-10-24T05:04:04.523Z,12.20
2022-10-24T05:06:32.850Z,12.93
2022-10-24T05:09:01.369Z,16.77
2022-10-24T05:11:29.829Z,12.50
2022-10-24T05:14:00.759Z,14.07
2022-10-24T05:16:32.802Z,14.40
2022-10-24T05:19:04.364Z,14.80
2022-10-24T05:21:33.319Z,16.90
2022-10-24T05:24:02.246Z,14.77
2022-10-24T05:26:33.590Z,21.00
2022-10-24T05:31:34.559Z,14.47
2022-10-24T05:34:04.105Z,14.50
2022-10-24T05:36:35.375Z,17.43
2022-10-24T05:39:06.238Z,13.83
2022-10-24T05:41:35.186Z,13.17
2022-10-24T05:44:05.567Z,17.87
2022-10-24T05:46:36.013Z,16.07
2022-10-24T05:49:04.775Z,13.30
2022-10-24T05:51:33.493Z,13.70
2022-10-24T05:54:02.183Z,14.50
2022-10-24T05:56:32.355Z,14.60
2022-10-24T05:59:02.321Z,14.80
2022-10-24T06:01:35.480Z,15.40
2022-10-24T06:04:07.824Z,15.37
2022-10-24T06:06:41.262Z,14.70
2022-10-24T06:09:10.623Z,21.10
2022-10-24T06:11:39.214Z,13.60
2022-10-24T06:14:09.457Z,13.10
2022-10-24T06:16:40.307Z,17.50
2022-10-24T06:19:10.116Z,13.67
2022-10-24T06:21:38.731Z,16.73
2022-10-24T06:24:07.926Z,15.37
2022-10-24T06:26:36.619Z,11.90
2022-10-24T06:29:05.489Z,14.10
2022-10-24T06:31:36.008Z,15.40
2022-10-24T06:34:06.079Z,17.37
2022-10-24T06:36:35.951Z,15.70
2022-10-24T06:39:10.223Z,14.37
2022-10-24T06:41:38.738Z,13.83
2022-10-24T06:44:10.842Z,14.50
2022-10-24T06:46:39.835Z,16.60
2022-10-24T06:49:10.175Z,15.17
2022-10-24T06:51:38.912Z,17.70
2022-10-24T06:54:07.873Z,17.90
2022-10-24T06:56:37.309Z,14.40
2022-10-24T06:59:10.662Z,17.90
2022-10-24T07:01:39.468Z,14.77
2022-10-24T07:04:11.041Z,18.30
2022-10-24T07:06:39.334Z,15.20
2022-10-24T07:09:11.489Z,15.13
2022-10-24T07:11:43.430Z,16.60
2022-10-24T07:14:14.391Z,12.43
2022-10-24T07:16:43.082Z,13.17
2022-10-24T07:19:14.493Z,14.03
2022-10-24T07:21:43.677Z,13.80
2022-10-24T07:24:13.700Z,14.53
2022-10-24T07:26:42.798Z,16.13
2022-10-24T07:29:11.626Z,16.40
2022-10-24T07:31:40.440Z,11.00
2022-10-24T07:34:13.664Z,15.17
2022-10-24T07:36:46.051Z,15.80
2022-10-24T07:39:19.608Z,11.97
2022-10-24T07:41:48.039Z,12.40
2022-10-24T07:44:16.670Z,13.77
2022-10-24T07:46:45.423Z,14.30
2022-10-24T07:49:13.827Z,15.33
2022-10-24T07:51:44.684Z,15.90
2022-10-24T07:54:13.423Z,20.70
2022-10-24T07:56:41.843Z,15.10
2022-10-24T07:59:30.039Z,11.90
2022-10-24T08:01:59.093Z,13.30
2022-10-24T08:04:30.228Z,16.00
2022-10-24T08:07:04.476Z,44.03
2022-10-24T08:09:33.032Z,16.13
2022-10-24T08:12:01.526Z,14.33
2022-10-24T08:14:29.923Z,12.73
2022-10-24T08:17:00.187Z,12.77
2022-10-24T08:19:28.478Z,13.57
2022-10-24T08:21:56.939Z,10.40
2022-10-24T08:24:27.490Z,15.83
2022-10-24T08:26:56.924Z,12.40
2022-10-24T08:29:26.414Z,12.23
2022-10-24T08:31:58.671Z,14.23
2022-10-24T08:34:28.410Z,12.53
2022-10-24T08:36:56.887Z,10.17
2022-10-24T08:39:28.393Z,13.73
2022-10-24T08:42:00.772Z,16.03
2022-10-24T08:44:32.001Z,14.70
2022-10-24T08:47:08.440Z,18.40
2022-10-24T08:49:47.854Z,13.40
2022-10-24T08:52:29.527Z,13.73
2022-10-24T08:55:04.779Z,18.07
2022-10-24T08:57:36.950Z,10.57
2022-10-24T09:00:20.902Z,10.93
2022-10-24T09:02:53.837Z,9.83
2022-10-24T09:05:27.602Z,14.23
2022-10-24T09:08:04.850Z,13.83
2022-10-24T09:10:44.305Z,16.93
2022-10-24T09:13:16.724Z,10.33
2022-10-24T09:15:49.235Z,13.87
2022-10-24T09:18:22.887Z,14.57
2022-10-24T09:20:53.788Z,13.90
2022-10-24T09:23:25.512Z,17.40
2022-10-24T09:25:59.816Z,17.93
2022-10-24T09:28:28.783Z,20.33
2022-10-24T09:31:00.106Z,15.23
2022-10-24T09:33:32.699Z,12.63
2022-10-24T09:36:07.497Z,10.23
2022-10-24T09:38:37.866Z,11.33
2022-10-24T09:41:17.461Z,15.17
2022-10-24T09:43:53.378Z,10.77
2022-10-24T09:46:26.730Z,12.53
2022-10-24T09:49:03.533Z,13.33
2022-10-24T09:51:35.628Z,15.67
2022-10-24T09:54:11.137Z,10.90
2022-10-24T09:56:44.280Z,9.10
2022-10-24T09:59:29.495Z,14.20
2022-10-24T10:02:19.561Z,10.30
2022-10-24T10:04:50.529Z,11.80
2022-10-24T10:07:22.348Z,17.23
2022-10-24T10:09:56.470Z,17.70
2022-10-24T10:12:35.242Z,18.13
2022-10-24T10:15:18.766Z,16.40
2022-10-24T10:17:52.649Z,16.00
2022-10-24T10:20:26.459Z,10.73
2022-10-24T10:22:56.112Z,14.40
2022-10-24T10:25:31.810Z,11.90
2022-10-24T10:28:03.197Z,13.47
2022-10-24T10:30:34.377Z,12.23
2022-10-24T10:33:13.779Z,14.20
2022-10-24T10:35:51.985Z,11.70
2022-10-24T10:38:48.432Z,11.17
2022-10-24T10:41:29.273Z,9.73
2022-10-24T10:44:12.237Z,17.57
2022-10-24T10:46:50.568Z,16.73
2022-10-24T10:49:26.808Z,14.20
2022-10-24T10:52:00.246Z,13.20
2022-10-24T10:54:52.717Z,10.37
2022-10-24T10:57:26.530Z,14.07
2022-10-24T11:00:08.237Z,13.90
2022-10-24T11:02:52.093Z,13.40
2022-10-24T11:05:37.652Z,13.63
2022-10-24T11:08:18.551Z,15.70
2022-10-24T11:10:53.085Z,11.67
2022-10-24T11:13:32.410Z,12.70
2022-10-24T11:16:12.018Z,10.33
2022-10-24T11:18:44.049Z,9.77
2022-10-24T11:21:15.130Z,13.10
2022-10-24T11:23:49.052Z,11.37
2022-10-24T11:26:26.123Z,14.50
2022-10-24T11:29:01.168Z,13.33
2022-10-24T11:31:40.257Z,10.90
2022-10-24T11:34:17.919Z,12.37
2022-10-24T11:36:55.677Z,10.07
2022-10-24T11:39:28.194Z,11.37
2022-10-24T11:42:06.875Z,9.87
2022-10-24T11:44:49.301Z,11.73
2022-10-24T11:47:44.849Z,10.40
2022-10-24T11:50:25.599Z,12.67
2022-10-24T11:53:00.463Z,34.10
2022-10-24T11:55:37.471Z,10.17
2022-10-24T11:58:10.162Z,12.27
2022-10-24T12:00:59.200Z,12.30
2022-10-24T12:03:51.582Z,10.37
2022-10-24T12:06:40.007Z,13.23
2022-10-24T12:09:23.979Z,12.20
2022-10-24T12:12:19.055Z,14.27
2022-10-24T12:15:09.716Z,12.13
2022-10-24T12:18:02.799Z,8.53
2022-10-24T12:20:34.510Z,9.03
2022-10-24T12:23:06.777Z,8.47
2022-10-24T12:25:37.879Z,10.70
2022-10-24T12:28:12.446Z,7.93
2022-10-24T12:30:41.585Z,4.83
2022-10-24T12:33:23.715Z,7.90
2022-10-24T12:35:58.263Z,7.20
2022-10-24T12:39:10.156Z,4.73
2022-10-24T12:41:47.213Z,9.13
2022-10-24T12:44:41.407Z,5.67
2022-10-24T12:47:32.886Z,5.93
2022-10-24T12:50:39.772Z,7.93
2022-10-24T12:53:30.904Z,3.20
2022-10-24T12:56:20.550Z,8.67
2022-10-24T12:58:59.252Z,8.17
2022-10-24T13:01:33.567Z,6.47
2022-10-24T13:07:43.133Z,5.57
2022-10-24T13:10:44.916Z,6.77
2022-10-24T13:13:59.682Z,4.87
2022-10-24T13:16:42.238Z,4.73
2022-10-24T13:19:17.381Z,5.07
2022-10-24T13:21:50.641Z,6.40
2022-10-24T13:24:30.726Z,6.77
2022-10-24T13:27:28.803Z,6.73
2022-10-24T13:30:26.312Z,10.53
2022-10-24T13:33:28.256Z,5.77
2022-10-24T13:35:59.102Z,7.37
2022-10-24T13:38:31.275Z,7.20
2022-10-24T13:41:00.029Z,5.67
2022-10-24T13:43:30.510Z,7.70
2022-10-24T13:46:03.334Z,4.53
2022-10-24T13:48:37.491Z,9.37
2022-10-24T13:51:14.123Z,7.30
2022-10-24T13:53:50.524Z,5.27
2022-10-24T13:56:19.652Z,5.30
2022-10-24T13:58:49.853Z,3.10
2022-10-24T14:01:22.306Z,4.00
2022-10-24T14:03:52.613Z,5.77
2022-10-24T14:06:26.678Z,6.30
2022-10-24T14:09:05.792Z,5.10
2022-10-24T14:11:41.458Z,4.67
2022-10-24T14:14:30.157Z,5.63
2022-10-24T14:17:23.268Z,4.00
2022-10-24T14:19:55.750Z,4.67
2022-10-24T14:22:29.901Z,5.07
2022-10-24T14:24:58.775Z,3.07
2022-10-24T14:27:27.517Z,4.30
2022-10-24T14:30:06.161Z,5.33
2022-10-24T14:32:37.224Z,3.37
2022-10-24T14:35:07.888Z,4.90
2022-10-24T14:37:40.630Z,7.30
2022-10-24T14:40:25.532Z,5.07
2022-10-24T14:42:54.976Z,5.63
2022-10-24T14:45:39.170Z,3.60
2022-10-24T14:48:19.928Z,7.87
2022-10-24T14:50:51.558Z,4.97
2022-10-24T14:53:28.643Z,6.73
2022-10-24T14:56:06.747Z,5.07
2022-10-24T14:58:41.838Z,4.07
2022-10-24T15:01:22.031Z,4.73
2022-10-24T15:03:59.580Z,6.00
2022-10-24T15:06:47.617Z,4.03
2022-10-24T15:09:23.353Z,8.43
2022-10-24T15:12:04.921Z,5.37
2022-10-24T15:14:49.142Z,5.70
2022-10-24T15:17:32.453Z,7.13
2022-10-24T15:20:13.167Z,6.90
2022-10-24T15:22:47.805Z,5.00
2022-10-24T15:25:23.126Z,7.23
2022-10-24T15:27:59.923Z,4.83
2022-10-24T15:30:34.525Z,5.97
2022-10-24T15:33:09.527Z,6.83
2022-10-24T15:35:45.981Z,5.27
2022-10-24T15:38:17.206Z,7.23
2022-10-24T15:40:52.176Z,8.33
2022-10-24T15:43:23.090Z,4.90
2022-10-24T15:45:51.984Z,6.07
2022-10-24T15:48:22.618Z,6.37
2022-10-24T15:50:52.794Z,5.37
2022-10-24T15:53:23.502Z,10.20
2022-10-24T15:55:53.488Z,7.77
2022-10-24T15:58:22.058Z,4.60
2022-10-24T16:00:55.226Z,6.87
2022-10-24T16:03:29.134Z,8.57
2022-10-24T16:06:02.116Z,4.53
2022-10-24T16:08:31.540Z,4.90
2022-10-24T16:11:04.952Z,9.30
2022-10-24T16:13:36.199Z,4.37
2022-10-24T16:16:04.706Z,4.70
2022-10-24T16:18:34.770Z,7.63
2022-10-24T16:21:05.506Z,5.87
2022-10-24T16:23:35.545Z,4.13
2022-10-24T16:26:05.599Z,6.93
2022-10-24T16:28:38.132Z,9.83
2022-10-24T16:31:11.128Z,6.40
2022-10-24T16:33:41.493Z,7.50
2022-10-24T16:36:10.123Z,5.60
2022-10-24T16:38:48.456Z,7.27
2022-10-24T16:41:21.687Z,4.63
2022-10-24T16:43:54.725Z,9.73
2022-10-24T16:46:24.622Z,8.07
2022-10-24T16:48:56.269Z,9.13
2022-10-24T16:51:32.653Z,5.70
2022-10-24T16:54:04.109Z,7.73
2022-10-24T16:56:36.097Z,3.97
2022-10-24T16:59:15.357Z,7.40
2022-10-24T17:01:51.874Z,6.53
2022-10-24T17:04:23.202Z,5.07
2022-10-24T17:06:51.661Z,6.33
2022-10-24T17:09:20.662Z,7.90
2022-10-24T17:11:49.384Z,5.80
2022-10-24T17:14:21.061Z,10.53
2022-10-24T17:16:52.061Z,5.93
2022-10-24T17:19:24.945Z,7.53
2022-10-24T17:21:55.400Z,7.57
2022-10-24T17:24:43.313Z,5.37
2022-10-24T17:27:13.602Z,6.87
2022-10-24T17:29:42.945Z,5.10
2022-10-24T17:32:15.987Z,5.30
2022-10-24T17:34:52.863Z,7.50
2022-10-24T17:37:29.350Z,4.83
2022-10-24T17:40:04.047Z,8.77
2022-10-24T17:42:36.409Z,3.80
2022-10-24T17:45:05.612Z,9.57
2022-10-24T17:47:34.753Z,7.00
2022-10-24T17:50:07.499Z,8.13
2022-10-24T17:52:40.282Z,9.90
2022-10-24T17:55:41.058Z,4.97
2022-10-24T17:58:10.337Z,8.50
2022-10-24T18:00:40.096Z,6.97
2022-10-24T18:03:09.429Z,9.70
2022-10-24T18:05:39.553Z,6.57
2022-10-24T18:08:09.075Z,5.93
2022-10-24T18:10:39.072Z,5.63
2022-10-24T18:13:08.297Z,6.60
2022-10-24T18:15:38.029Z,7.43
2022-10-24T18:18:07.371Z,5.83
2022-10-24T18:20:36.564Z,7.57
2022-10-24T18:23:06.677Z,8.70
2022-10-24T18:25:37.763Z,8.07
2022-10-24T18:28:06.796Z,9.73
2022-10-24T18:30:36.060Z,7.80
2022-10-24T18:33:04.904Z,8.27
2022-10-24T18:35:36.200Z,6.50
2022-10-24T18:38:09.973Z,6.43
2022-10-24T18:40:45.365Z,5.37
2022-10-24T18:43:17.665Z,6.57
2022-10-24T18:45:49.238Z,4.70
2022-10-24T18:48:20.177Z,5.13
2022-10-24T18:50:54.044Z,7.33
2022-10-24T18:53:30.289Z,11.73
2022-10-24T18:56:01.754Z,5.73
2022-10-24T18:58:32.726Z,6.30
2022-10-24T19:01:04.458Z,8.37
2022-10-24T19:03:37.381Z,5.53
2022-10-24T19:06:20.763Z,6.70
2022-10-24T19:08:54.093Z,5.87
2022-10-24T19:11:24.892Z,6.93
2022-10-24T19:13:54.258Z,9.83
2022-10-24T19:16:28.686Z,6.53
2022-10-24T19:19:03.677Z,5.37
2022-10-24T19:21:32.366Z,7.57
2022-10-24T19:24:04.760Z,6.17
2022-10-24T19:26:34.267Z,8.63
2022-10-24T19:29:04.954Z,9.83
2022-10-24T19:31:34.806Z,6.37
2022-10-24T19:34:07.509Z,6.67
2022-10-24T19:36:36.710Z,5.87
2022-10-24T19:39:07.964Z,6.03
2022-10-24T19:41:37.196Z,5.73
2022-10-24T19:44:05.696Z,7.07
2022-10-24T19:46:34.138Z,6.90
2022-10-24T19:49:04.244Z,11.37
2022-10-24T19:51:33.089Z,9.97
2022-10-24T19:54:02.332Z,10.63
2022-10-24T19:56:33.511Z,7.13
2022-10-24T19:59:02.171Z,10.07
2022-10-24T20:01:33.070Z,8.37
2022-10-24T20:04:04.018Z,7.17
2022-10-24T20:06:35.560Z,8.00
2022-10-24T20:09:08.039Z,7.50
2022-10-24T20:11:38.299Z,8.13
2022-10-24T20:14:07.450Z,7.47
2022-10-24T20:16:36.784Z,7.13
2022-10-24T20:19:06.689Z,7.00
2022-10-24T20:21:37.960Z,6.17
2022-10-24T20:24:07.873Z,11.07
2022-10-24T20:26:37.957Z,9.67
2022-10-24T20:29:06.564Z,10.10
2022-10-24T20:31:38.333Z,7.83
2022-10-24T20:34:09.955Z,10.53
2022-10-24T20:36:39.382Z,7.93
2022-10-24T20:39:09.992Z,5.10
2022-10-24T20:41:39.878Z,5.23
2022-10-24T20:44:08.445Z,11.00
2022-10-24T20:46:38.461Z,7.73
2022-10-24T20:49:07.213Z,7.87
2022-10-24T20:51:35.906Z,6.57
2022-10-24T20:54:04.298Z,6.00
2022-10-24T20:56:35.901Z,13.97
2022-10-24T20:59:14.430Z,11.23
2022-10-24T21:01:43.459Z,8.37
2022-10-24T21:04:17.103Z,6.47
2022-10-24T21:06:49.724Z,5.83
2022-10-24T21:09:18.985Z,8.47
2022-10-24T21:11:48.453Z,10.93
2022-10-24T21:14:21.456Z,11.87
2022-10-24T21:16:50.190Z,8.63
2022-10-24T21:19:19.496Z,8.07
2022-10-24T21:21:48.212Z,7.27
2022-10-24T21:24:18.309Z,9.00
2022-10-24T21:26:48.274Z,10.27
2022-10-24T21:29:32.801Z,7.23
2022-10-24T21:32:03.074Z,8.80
2022-10-24T21:34:34.843Z,10.03
2022-10-24T21:37:04.281Z,16.73
2022-10-24T21:39:35.788Z,6.83
2022-10-24T21:42:05.638Z,9.27
2022-10-24T21:44:38.196Z,8.87
2022-10-24T21:47:07.661Z,8.33
2022-10-24T21:49:39.178Z,9.80
2022-10-24T21:52:08.498Z,12.47
2022-10-24T21:54:38.817Z,4.40
2022-10-24T21:57:08.274Z,8.30
2022-10-24T21:59:40.917Z,7.00
2022-10-24T22:02:09.805Z,6.70
2022-10-24T22:04:40.065Z,7.37
2022-10-24T22:07:11.875Z,6.53
2022-10-24T22:09:41.014Z,7.30
2022-10-24T22:12:09.921Z,10.17
2022-10-24T22:14:39.888Z,4.80
2022-10-24T22:17:08.891Z,6.00
2022-10-24T22:19:37.065Z,7.00
2022-10-24T22:22:05.619Z,6.57
2022-10-24T22:24:34.910Z,7.60
2022-10-24T22:27:05.553Z,5.37
2022-10-24T22:29:34.268Z,10.60
2022-10-24T22:32:12.853Z,9.73
2022-10-24T22:34:46.011Z,6.10
2022-10-24T22:37:27.635Z,8.53
2022-10-24T22:39:56.810Z,9.87
2022-10-24T22:42:25.791Z,7.20
2022-10-24T22:44:56.780Z,9.30
2022-10-24T22:47:41.832Z,10.10
2022-10-24T22:50:33.773Z,12.00
2022-10-24T22:53:05.497Z,9.80
2022-10-24T22:55:39.717Z,8.73
2022-10-24T22:58:08.914Z,6.60
2022-10-24T23:00:42.373Z,8.60
2022-10-24T23:03:28.694Z,8.40
2022-10-24T23:06:02.341Z,11.40
2022-10-24T23:08:39.208Z,8.37
2022-10-24T23:11:11.058Z,7.93
2022-10-24T23:13:41.032Z,10.20
2022-10-24T23:16:21.521Z,7.63
2022-10-24T23:18:52.546Z,7.63
2022-10-24T23:21:28.845Z,8.40
2022-10-24T23:23:59.568Z,7.70
2022-10-24T23:26:38.209Z,6.93
2022-10-24T23:29:18.676Z,11.50
2022-10-24T23:31:48.078Z,8.80
2022-10-24T23:34:24.254Z,8.00
2022-10-24T23:36:57.086Z,7.03
2022-10-24T23:39:26.528Z,5.57
2022-10-24T23:41:55.836Z,11.23
2022-10-24T23:44:24.725Z,7.13
2022-10-24T23:47:08.055Z,7.67
2022-10-24T23:49:47.574Z,10.73
2022-10-24T23:52:27.479Z,10.27
2022-10-24T23:54:59.384Z,6.50
2022-10-24T23:57:29.246Z,9.07
